Time;durP1;ratioP1;P1;durP2;ratioP2;P2;SDS_P1;SDS_P2;PMS_P1;PMS_P2;Temp;Humidity;BMP_temperature;BMP_pressure;BME280_temperature;BME280_humidity;BME280_pressure;Samples;Min_cycle;Max_cycle;Signal;HPM_P1;HPM_P2
2023/07/12 04:01:50;;;;;;;5.15;3.50;;;21.60;99.90;;;;;;5352491;23;20050;-64
2023/07/12 04:04:15;;;;;;;6.18;4.07;;;21.50;99.90;;;;;;4994263;28;20035;-65
2023/07/12 04:06:41;;;;;;;11.95;4.60;;;21.50;99.90;;;;;;4994353;28;20113;-65
2023/07/12 04:09:08;;;;;;;;;;;21.50;99.90;;;;;;4977181;28;20030;-63
2023/07/12 04:11:36;;;;;;;7.28;4.20;;;21.60;99.90;;;;;;4994451;28;19925;-64
2023/07/12 04:14:02;;;;;;;7.90;3.88;;;21.70;99.90;;;;;;4977267;28;20038;-64
2023/07/12 04:16:29;;;;;;;6.28;3.75;;;21.70;99.90;;;;;;4995452;28;20025;-63
2023/07/12 04:18:55;;;;;;;7.22;3.30;;;21.80;99.90;;;;;;4993800;28;20030;-63
2023/07/12 04:21:21;;;;;;;9.20;4.53;;;21.90;99.90;;;;;;4988841;28;20082;-61
2023/07/12 04:23:48;;;;;;;12.95;4.22;;;22.00;99.90;;;;;;4974708;28;20088;-63
2023/07/12 04:26:14;;;;;;;8.43;4.10;;;22.10;99.90;;;;;;4974292;28;20038;-63
2023/07/12 04:28:42;;;;;;;10.48;3.97;;;22.20;99.90;;;;;;4974139;28;20027;-63
2023/07/12 04:31:10;;;;;;;8.27;4.05;;;22.30;99.90;;;;;;4974686;28;20015;-63
2023/07/12 04:33:36;;;;;;;8.48;3.58;;;22.30;99.90;;;;;;4975018;28;20030;-64
2023/07/12 04:36:06;;;;;;;;;;;22.40;99.90;;;;;;4975785;28;20022;-64
2023/07/12 04:38:32;;;;;;;7.78;4.15;;;22.40;99.90;;;;;;4975373;28;19907;-64
2023/07/12 04:40:57;;;;;;;8.15;3.90;;;22.40;99.90;;;;;;4975340;28;20023;-64
2023/07/12 04:43:23;;;;;;;9.40;4.07;;;22.40;99.90;;;;;;4956950;28;20038;-65
2023/07/12 04:45:49;;;;;;;9.60;4.28;;;22.40;99.90;;;;;;4974936;28;20428;-65
2023/07/12 04:48:15;;;;;;;9.20;3.70;;;22.40;99.90;;;;;;4978496;28;20030;-64
2023/07/12 04:50:40;;;;;;;8.32;4.13;;;22.50;99.90;;;;;;4978534;28;20031;-63
2023/07/12 04:53:05;;;;;;;;;;;22.40;99.90;;;;;;4988282;28;20026;-64
2023/07/12 04:55:31;;;;;;;9.20;4.45;;;22.40;99.90;;;;;;4997593;28;19906;-64
2023/07/12 04:57:57;;;;;;;11.85;4.63;;;22.50;99.90;;;;;;4997529;28;20026;-64
2023/07/12 05:00:23;;;;;;;10.15;4.15;;;22.50;99.90;;;;;;4997834;28;20034;-63
2023/07/12 05:02:49;;;;;;;;;;;22.60;99.90;;;;;;4983803;28;20080;-63
2023/07/12 05:05:15;;;;;;;9.77;4.40;;;22.70;99.90;;;;;;4978580;28;19910;-64
2023/07/12 05:07:41;;;;;;;11.30;4.10;;;22.70;99.90;;;;;;4978701;28;20035;-62
2023/07/12 05:10:08;;;;;;;9.38;4.57;;;22.70;99.90;;;;;;4978319;28;20023;-62
2023/07/12 05:12:38;;;;;;;7.25;4.00;;;22.80;99.90;;;;;;4977962;28;20033;-63
2023/07/12 05:15:05;;;;;;;9.57;4.28;;;22.60;99.90;;;;;;4977852;28;20037;-62
2023/07/12 05:17:31;;;;;;;8.70;4.20;;;22.80;99.90;;;;;;4977502;28;20027;-63
2023/07/12 05:19:57;;;;;;;8.13;4.68;;;22.80;99.90;;;;;;4977727;28;20027;-63
2023/07/12 05:22:23;;;;;;;9.50;4.32;;;22.80;99.90;;;;;;4977611;28;20038;-63
2023/07/12 05:24:48;;;;;;;;;;;22.80;99.90;;;;;;4978615;28;20031;-63
2023/07/12 05:27:14;;;;;;;8.23;4.88;;;22.90;99.90;;;;;;4977565;28;19913;-63
2023/07/12 05:29:39;;;;;;;;;;;22.90;99.90;;;;;;4978237;28;20035;-66
2023/07/12 05:32:05;;;;;;;12.45;5.63;;;22.90;99.90;;;;;;4977874;28;20291;-63
2023/07/12 05:34:30;;;;;;;10.05;5.03;;;22.90;99.90;;;;;;4984170;28;20025;-64
2023/07/12 05:36:56;;;;;;;;;;;23.00;99.90;;;;;;4987399;28;20049;-67
2023/07/12 05:39:21;;;;;;;9.35;5.72;;;23.10;99.90;;;;;;4978819;28;19906;-66
2023/07/12 05:41:47;;;;;;;7.22;4.22;;;23.20;99.90;;;;;;4979822;28;20503;-67
2023/07/12 05:44:12;;;;;;;;;;;23.30;99.90;;;;;;4991030;28;20046;-66
2023/07/12 05:46:38;;;;;;;12.18;4.75;;;23.40;99.90;;;;;;4977014;28;19906;-66
2023/07/12 05:49:04;;;;;;;8.23;4.70;;;23.30;99.90;;;;;;4977853;28;20061;-66
2023/07/12 05:51:29;;;;;;;10.45;4.78;;;23.30;99.90;;;;;;4976967;28;20502;-66
2023/07/12 05:53:55;;;;;;;;;;;23.30;99.90;;;;;;4977279;28;20101;-67
2023/07/12 05:56:20;;;;;;;10.18;6.60;;;23.50;99.90;;;;;;4976711;28;19906;-66
2023/07/12 05:58:46;;;;;;;;;;;23.50;99.90;;;;;;4977313;28;20982;-67
2023/07/12 06:01:11;;;;;;;8.68;4.72;;;23.60;99.90;;;;;;4988517;28;19920;-65
2023/07/12 06:03:37;;;;;;;;;;;23.50;99.90;;;;;;4996636;28;20038;-67
2023/07/12 06:06:07;;;;;;;21.77;5.70;;;23.60;99.90;;;;;;4996217;28;19905;-67
2023/07/12 06:08:33;;;;;;;11.00;4.70;;;23.60;99.90;;;;;;4995895;28;20054;-64
2023/07/12 06:10:59;;;;;;;9.77;4.95;;;23.70;99.90;;;;;;4996204;28;20027;-64
2023/07/12 06:13:24;;;;;;;;;;;23.60;99.90;;;;;;4996740;28;20387;-65
2023/07/12 06:15:50;;;;;;;10.13;4.55;;;23.70;99.90;;;;;;4996720;28;19906;-64
2023/07/12 06:18:15;;;;;;;;;;;23.80;99.90;;;;;;4997259;28;20022;-64
2023/07/12 06:20:41;;;;;;;12.00;4.57;;;23.90;99.90;;;;;;4996320;28;19984;-63
2023/07/12 06:23:06;;;;;;;;;;;23.90;99.90;;;;;;4996502;28;20611;-64
2023/07/12 06:25:32;;;;;;;9.07;4.03;;;23.90;99.90;;;;;;4994112;28;19906;-65
2023/07/12 06:27:57;;;;;;;;;;;23.80;99.90;;;;;;4987176;28;20038;-64
2023/07/12 06:30:23;;;;;;;10.45;3.92;;;23.90;99.90;;;;;;4986379;28;19918;-65
2023/07/12 06:32:48;;;;;;;;;;;24.00;99.90;;;;;;4995984;28;20019;-65
2023/07/12 06:35:14;;;;;;;7.95;4.15;;;24.10;99.90;;;;;;4996104;28;20001;-65
2023/07/12 06:37:40;;;;;;;;;;;24.20;99.90;;;;;;4996108;28;20392;-65
2023/07/12 06:40:06;;;;;;;11.88;6.22;;;24.40;99.90;;;;;;4991241;28;19921;-66
2023/07/12 06:42:33;;;;;;;18.48;5.40;;;24.40;99.90;;;;;;4986150;28;20054;-65
2023/07/12 06:44:59;;;;;;;11.82;4.50;;;24.40;99.90;;;;;;4986971;28;20038;-65
2023/07/12 06:47:24;;;;;;;;;;;24.50;99.90;;;;;;4981908;28;20373;-65
2023/07/12 06:49:50;;;;;;;10.95;4.68;;;24.60;99.90;;;;;;4988289;28;20366;-65
2023/07/12 06:52:15;;;;;;;;;;;24.50;99.90;;;;;;4995757;28;20026;-65
2023/07/12 06:54:41;;;;;;;9.05;4.22;;;24.50;99.90;;;;;;4995576;28;19913;-64
2023/07/12 06:57:06;;;;;;;;;;;24.60;99.90;;;;;;4995862;28;20022;-63
2023/07/12 06:59:32;;;;;;;7.45;3.55;;;24.60;99.90;;;;;;4995533;28;20381;-63
2023/07/12 07:01:57;;;;;;;;;;;24.70;99.90;;;;;;4995820;28;20073;-64
2023/07/12 07:04:23;;;;;;;7.57;4.35;;;24.60;99.90;;;;;;4995722;28;19913;-63
2023/07/12 07:06:48;;;;;;;;;;;24.70;99.90;;;;;;4995592;28;20052;-64
2023/07/12 07:09:14;;;;;;;11.05;4.63;;;24.70;99.90;;;;;;4992536;28;19917;-64
2023/07/12 07:11:39;;;;;;;;;;;24.80;99.90;;;;;;4991381;28;20077;-64
2023/07/12 07:14:05;;;;;;;10.75;4.75;;;24.90;99.90;;;;;;4993174;28;19910;-63
2023/07/12 07:16:30;;;;;;;;;;;24.90;99.90;;;;;;4977506;28;20048;-65
2023/07/12 07:18:56;;;;;;;9.00;4.28;;;25.00;99.90;;;;;;4994906;28;19914;-64
2023/07/12 07:21:22;;;;;;;9.90;3.92;;;25.30;99.90;;;;;;4994811;28;20030;-63
2023/07/12 07:23:48;;;;;;;;;;;25.40;99.90;;;;;;4995157;28;20030;-64
2023/07/12 07:26:14;;;;;;;7.63;4.45;;;25.30;99.90;;;;;;4995107;28;19910;-64
2023/07/12 07:28:40;;;;;;;9.73;3.83;;;25.20;99.90;;;;;;4994543;28;20044;-65
2023/07/12 07:31:07;;;;;;;;;;;25.10;99.90;;;;;;4995083;28;20026;-64
2023/07/12 07:33:32;;;;;;;13.33;4.77;;;25.10;99.90;;;;;;4994461;28;20000;-64
2023/07/12 07:35:58;;;;;;;;;;;25.20;99.90;;;;;;4994906;28;20027;-63
2023/07/12 07:38:27;;;;;;;6.75;3.92;;;25.10;99.90;;;;;;4994637;28;19909;-64
2023/07/12 07:40:53;;;;;;;8.82;4.40;;;25.30;99.90;;;;;;4994193;28;20014;-65
2023/07/12 07:43:19;;;;;;;7.03;3.83;;;25.50;99.90;;;;;;4994267;28;20031;-64
2023/07/12 07:45:44;;;;;;;;;;;25.90;99.90;;;;;;4994915;28;20475;-64
2023/07/12 07:48:10;;;;;;;7.13;4.72;;;26.20;99.90;;;;;;4994263;28;19906;-64
2023/07/12 07:50:36;;;;;;;;;;;26.30;99.90;;;;;;4994844;28;20493;-65
2023/07/12 07:53:02;;;;;;;8.00;4.00;;;26.20;99.90;;;;;;4994297;28;19906;-64
2023/07/12 07:55:27;;;;;;;;;;;26.10;99.90;;;;;;4994724;28;20030;-64
2023/07/12 07:57:53;;;;;;;8.63;4.18;;;26.10;99.90;;;;;;4993726;28;19917;-64
2023/07/12 08:00:19;;;;;;;7.70;4.40;;;26.00;99.90;;;;;;4993891;28;20030;-64
2023/07/12 08:02:44;;;;;;;11.20;4.18;;;26.00;99.90;;;;;;4994053;28;20038;-65
2023/07/12 08:05:12;;;;;;;8.25;3.55;;;26.30;99.90;;;;;;4993733;28;20027;-64
2023/07/12 08:07:42;;;;;;;6.93;3.90;;;26.40;99.90;;;;;;4974913;28;20126;-64
2023/07/12 08:10:11;;;;;;;9.55;3.95;;;26.50;99.90;;;;;;4974574;28;20037;-63
2023/07/12 08:12:37;;;;;;;8.40;3.88;;;26.70;99.90;;;;;;4994128;28;20545;-64
2023/07/12 08:15:03;;;;;;;7.30;4.07;;;26.90;99.90;;;;;;4994196;28;20069;-63
2023/07/12 08:17:29;;;;;;;5.25;3.60;;;27.60;99.90;;;;;;4993903;28;20037;-65
2023/07/12 08:19:55;;;;;;;7.90;3.50;;;29.60;99.90;;;;;;4991835;28;20030;-64
2023/07/12 08:22:20;;;;;;;6.47;3.58;;;31.90;99.20;;;;;;4993160;28;20034;-64
2023/07/12 08:24:47;;;;;;;4.85;3.95;;;33.50;96.10;;;;;;4994000;28;20506;-64
2023/07/12 08:27:15;;;;;;;7.40;3.15;;;34.70;94.00;;;;;;4994091;28;20113;-64
2023/07/12 08:29:42;;;;;;;5.82;3.50;;;35.40;92.70;;;;;;4976433;28;20026;-65
2023/07/12 08:32:08;;;;;;;5.30;3.45;;;36.20;91.30;;;;;;4992208;28;20513;-64
2023/07/12 08:34:34;;;;;;;8.13;4.28;;;36.90;90.10;;;;;;4976409;28;20041;-64
2023/07/12 08:37:00;;;;;;;6.03;3.05;;;38.00;87.00;;;;;;4994248;28;20114;-69
2023/07/12 08:39:25;;;;;;;6.07;3.00;;;37.80;85.20;;;;;;4993727;28;20026;-71
2023/07/12 08:41:51;;;;;;;4.30;2.80;;;38.50;81.90;;;;;;4992785;28;20077;-70
2023/07/12 08:44:18;;;;;;;9.68;3.25;;;38.20;78.30;;;;;;4984072;28;20113;-74
2023/07/12 08:46:53;;;;;;;7.32;2.58;;;36.60;79.80;;;;;;4964482;28;20121;-73
2023/07/12 08:49:19;;;;;;;5.63;2.80;;;35.50;81.70;;;;;;4966788;28;20034;-73
2023/07/12 08:51:45;;;;;;;3.45;2.28;;;34.70;83.10;;;;;;4978484;28;20073;-74
2023/07/12 08:54:22;;;;;;;3.72;2.17;;;34.20;83.10;;;;;;4988382;28;20017;-74
2023/07/12 08:56:54;;;;;;;6.78;2.20;;;34.00;81.80;;;;;;4981354;28;20023;-75
2023/07/12 08:59:20;;;;;;;5.75;2.38;;;34.50;81.20;;;;;;4971956;28;20077;-74
2023/07/12 09:01:53;;;;;;;6.18;2.20;;;36.10;78.70;;;;;;4988636;28;20074;-73
2023/07/12 09:04:31;;;;;;;3.45;2.47;;;37.40;75.90;;;;;;4988628;28;20074;-73
2023/07/12 09:07:04;;;;;;;5.10;2.30;;;38.50;73.80;;;;;;4969538;28;20109;-73
2023/07/12 09:09:35;;;;;;;7.80;2.00;;;38.70;72.20;;;;;;4986252;28;20029;-73
2023/07/12 09:12:06;;;;;;;3.85;2.20;;;39.30;71.30;;;;;;4988030;28;20023;-75
2023/07/12 09:14:35;;;;;;;4.95;2.13;;;39.70;69.30;;;;;;4993859;28;20043;-75
2023/07/12 09:17:01;;;;;;;5.80;2.20;;;39.20;69.90;;;;;;4998424;28;20097;-74
2023/07/12 09:19:32;;;;;;;8.00;1.92;;;39.30;67.60;;;;;;4978929;28;20125;-75
2023/07/12 09:22:05;;;;;;;3.78;2.03;;;39.40;67.00;;;;;;4977310;28;20045;-69
2023/07/12 09:24:31;;;;;;;3.55;2.38;;;39.60;67.00;;;;;;4991669;28;20403;-69
2023/07/12 09:27:16;;;;;;;5.38;1.80;;;40.30;66.60;;;;;;4985546;28;20045;-69
2023/07/12 09:29:41;;;;;;;3.72;1.83;;;40.40;65.20;;;;;;4994598;28;20022;-72
2023/07/12 09:32:22;;;;;;;3.15;1.52;;;40.40;63.50;;;;;;4995135;28;20502;-71
2023/07/12 09:34:49;;;;;;;4.93;1.42;;;40.70;62.80;;;;;;4996967;28;20173;-70
2023/07/12 09:37:18;;;;;;;6.30;2.22;;;40.80;62.10;;;;;;4981000;28;20022;-72
2023/07/12 09:39:54;;;;;;;4.20;1.83;;;40.90;62.00;;;;;;4998626;28;20113;-70
2023/07/12 09:42:20;;;;;;;3.05;1.98;;;41.20;61.00;;;;;;5004153;28;20018;-70
2023/07/12 09:44:47;;;;;;;5.50;1.80;;;41.70;60.40;;;;;;5001534;28;20030;-70
2023/07/12 09:47:39;;;;;;;5.07;1.75;;;41.70;60.20;;;;;;5001019;28;20030;-70
2023/07/12 09:50:26;;;;;;;3.00;1.70;;;41.60;60.10;;;;;;5002166;28;20026;-71
2023/07/12 09:53:04;;;;;;;5.93;1.88;;;42.00;59.60;;;;;;4986717;28;20030;-69
2023/07/12 09:55:41;;;;;;;3.53;1.92;;;42.40;59.20;;;;;;5003129;28;20022;-71
2023/07/12 09:58:24;;;;;;;4.15;2.22;;;42.30;59.00;;;;;;5002958;28;20486;-70
2023/07/12 10:00:57;;;;;;;2.88;1.90;;;41.90;59.10;;;;;;5001815;28;20529;-70
2023/07/12 10:03:26;;;;;;;3.90;2.22;;;42.00;58.90;;;;;;4984055;28;20106;-71
2023/07/12 10:06:14;;;;;;;2.92;2.00;;;42.10;59.00;;;;;;4985136;28;20054;-71
2023/07/12 10:09:07;;;;;;;2.90;1.60;;;41.50;59.00;;;;;;4990139;28;20026;-72
2023/07/12 10:12:03;;;;;;;5.38;1.90;;;41.70;58.80;;;;;;4990749;28;20114;-70
2023/07/12 10:14:34;;;;;;;;;;;41.80;58.60;;;;;;4989919;28;20033;-70
2023/07/12 10:17:01;;;;;;;5.10;1.73;;;41.20;59.10;;;;;;5013734;23;20343;-69
2023/07/12 10:19:34;;;;;;;4.43;1.80;;;40.60;59.40;;;;;;4974247;28;20026;-68
2023/07/12 10:22:04;;;;;;;6.50;1.92;;;40.30;59.80;;;;;;4958539;28;20118;-70
2023/07/12 10:24:36;;;;;;;3.03;1.70;;;40.10;60.00;;;;;;4977510;28;20478;-68
2023/07/12 10:27:13;;;;;;;3.90;1.90;;;40.20;60.50;;;;;;4981159;28;20089;-68
2023/07/12 10:29:50;;;;;;;3.65;2.05;;;40.70;59.80;;;;;;4976981;28;20530;-69
2023/07/12 10:32:22;;;;;;;4.30;1.80;;;40.60;58.70;;;;;;4977275;28;20033;-71
2023/07/12 10:35:15;;;;;;;4.78;2.25;;;40.70;59.60;;;;;;4986839;28;20025;-69
2023/07/12 10:37:48;;;;;;;3.67;1.80;;;40.50;60.00;;;;;;4978377;28;20026;-71
2023/07/12 10:40:22;;;;;;;5.15;2.10;;;40.60;60.20;;;;;;4978551;28;20023;-69
2023/07/12 10:42:54;;;;;;;2.90;1.90;;;40.30;60.00;;;;;;4978850;28;20026;-69
2023/07/12 10:45:34;;;;;;;6.13;1.60;;;40.50;60.10;;;;;;4978329;28;20034;-69
2023/07/12 10:48:02;;;;;;;4.07;1.75;;;39.90;60.30;;;;;;4978554;28;20458;-69
2023/07/12 10:50:37;;;;;;;4.72;2.47;;;38.90;60.80;;;;;;4996074;28;20125;-68
2023/07/12 10:53:23;;;;;;;;;;;37.60;62.90;;;;;;4980021;28;20078;-69
2023/07/12 10:56:07;;;;;;;5.50;2.40;;;36.00;64.40;;;;;;4971636;28;19960;-70
2023/07/12 10:58:48;;;;;;;5.35;2.10;;;35.40;65.90;;;;;;4985649;28;20033;-70
2023/07/12 11:01:42;;;;;;;2.95;1.85;;;36.20;66.00;;;;;;4980905;28;20126;-71
2023/07/12 11:04:09;;;;;;;3.67;2.03;;;37.00;64.70;;;;;;4996758;28;20030;-74
2023/07/12 11:06:35;;;;;;;5.30;2.20;;;36.90;65.00;;;;;;4979627;28;20479;-73
2023/07/12 11:09:01;;;;;;;4.35;1.95;;;36.80;64.70;;;;;;4977998;28;20026;-72
2023/07/12 11:11:35;;;;;;;5.35;2.08;;;36.40;65.10;;;;;;4996300;28;20018;-72
2023/07/12 11:14:13;;;;;;;6.28;2.10;;;36.50;65.40;;;;;;4996610;28;20069;-73
2023/07/12 11:16:49;;;;;;;6.05;1.83;;;36.50;64.90;;;;;;4996142;28;20042;-70
2023/07/12 11:19:41;;;;;;;3.17;1.90;;;35.90;65.70;;;;;;4974624;28;20479;-68
2023/07/12 11:22:20;;;;;;;6.85;1.95;;;34.50;67.30;;;;;;4977317;28;20053;-68
2023/07/12 11:24:53;;;;;;;4.70;2.00;;;33.90;69.20;;;;;;4995707;28;20390;-68
2023/07/12 11:27:41;;;;;;;5.20;2.10;;;33.20;70.30;;;;;;4995707;28;20019;-68
2023/07/12 11:30:27;;;;;;;4.63;2.17;;;32.80;70.90;;;;;;4995312;28;20026;-68
2023/07/12 11:32:58;;;;;;;;;;;32.30;71.80;;;;;;4995910;28;20019;-68
2023/07/12 11:35:44;;;;;;;4.00;2.00;;;31.90;72.50;;;;;;4975965;28;19916;-70
2023/07/12 11:38:27;;;;;;;4.45;2.10;;;31.90;73.50;;;;;;4995873;28;20021;-74
2023/07/12 11:40:55;;;;;;;6.88;2.45;;;31.90;72.90;;;;;;4977874;28;20605;-72
2023/07/12 11:43:23;;;;;;;5.45;1.90;;;31.90;73.40;;;;;;4996372;28;20030;-71
2023/07/12 11:45:54;;;;;;;5.78;2.05;;;31.70;73.30;;;;;;4995838;28;20124;-73
2023/07/12 11:48:22;;;;;;;6.38;2.15;;;31.50;73.70;;;;;;4996179;28;20486;-76
2023/07/12 11:50:52;;;;;;;5.55;2.08;;;31.50;73.80;;;;;;4977973;28;20026;-76
2023/07/12 11:53:19;;;;;;;5.35;2.05;;;31.30;74.00;;;;;;4976919;28;20124;-78
2023/07/12 11:55:47;;;;;;;3.75;2.00;;;31.20;74.50;;;;;;4974140;28;20027;-77
2023/07/12 11:58:26;;;;;;;4.35;1.95;;;31.00;74.70;;;;;;4958301;28;20447;-77
2023/07/12 12:00:55;;;;;;;7.15;2.47;;;30.90;75.10;;;;;;4974409;28;20038;-77
2023/07/12 12:03:21;;;;;;;5.30;2.08;;;31.00;75.00;;;;;;4997334;28;20030;-75
2023/07/12 12:05:48;;;;;;;4.90;2.22;;;31.20;73.80;;;;;;4980393;28;20056;-77
2023/07/12 12:08:18;;;;;;;4.22;2.13;;;31.00;73.40;;;;;;4997351;28;20489;-77
2023/07/12 12:10:47;;;;;;;6.00;1.98;;;31.00;74.20;;;;;;4978696;28;20121;-74
2023/07/12 12:13:27;;;;;;;3.72;1.98;;;30.90;74.60;;;;;;4978909;28;20022;-77
2023/07/12 12:16:16;;;;;;;4.38;1.63;;;30.80;74.50;;;;;;4994780;28;20372;-75
2023/07/12 12:18:52;;;;;;;6.22;1.98;;;30.80;74.10;;;;;;4995145;28;20050;-75
2023/07/12 12:21:18;;;;;;;3.67;2.15;;;30.80;73.30;;;;;;4978095;28;20018;-74
2023/07/12 12:23:53;;;;;;;6.15;2.15;;;30.70;73.50;;;;;;4994841;28;20426;-67
2023/07/12 12:26:23;;;;;;;5.40;1.80;;;30.50;74.10;;;;;;4992274;28;20530;-67
2023/07/12 12:28:52;;;;;;;2.90;1.88;;;30.40;73.30;;;;;;4976041;28;20058;-68
2023/07/12 12:31:21;;;;;;;2.35;1.60;;;30.30;73.60;;;;;;4993996;28;20141;-67
2023/07/12 12:33:49;;;;;;;6.15;1.88;;;30.30;73.00;;;;;;4994449;28;20015;-67
2023/07/12 12:36:27;;;;;;;7.97;2.08;;;30.10;73.50;;;;;;4992110;28;20022;-67
2023/07/12 12:39:05;;;;;;;4.35;2.10;;;29.90;74.70;;;;;;4969953;28;20029;-67
2023/07/12 12:41:43;;;;;;;3.75;1.95;;;30.00;74.10;;;;;;4978323;28;20141;-67
2023/07/12 12:44:19;;;;;;;3.80;2.03;;;30.10;73.70;;;;;;4974800;28;20026;-67
2023/07/12 12:46:48;;;;;;;4.82;1.95;;;30.30;72.90;;;;;;4990398;28;20027;-68
2023/07/12 12:49:26;;;;;;;3.45;1.92;;;30.30;72.40;;;;;;4994300;28;20038;-67
2023/07/12 12:51:58;;;;;;;5.82;2.50;;;30.40;72.90;;;;;;4992967;28;20037;-68
2023/07/12 12:54:24;;;;;;;6.22;2.00;;;30.40;72.40;;;;;;4990629;28;20066;-68
2023/07/12 12:56:50;;;;;;;4.55;2.10;;;30.30;73.00;;;;;;4975028;28;20030;-68
2023/07/12 12:59:17;;;;;;;3.53;1.98;;;30.30;73.60;;;;;;4975975;28;20034;-67
2023/07/12 13:01:45;;;;;;;7.22;2.05;;;30.20;72.80;;;;;;4994047;28;20421;-67
2023/07/12 13:04:12;;;;;;;3.30;1.95;;;30.20;73.40;;;;;;4976515;28;20030;-68
2023/07/12 13:06:40;;;;;;;4.03;2.30;;;30.10;73.10;;;;;;4976441;28;20027;-68
2023/07/12 13:09:21;;;;;;;3.78;1.83;;;30.20;73.70;;;;;;4982199;28;20509;-68
2023/07/12 13:11:50;;;;;;;7.32;2.10;;;30.20;73.60;;;;;;4984674;28;20034;-68
2023/07/12 13:14:16;;;;;;;8.15;2.25;;;30.10;73.80;;;;;;4985028;28;20023;-68
2023/07/12 13:16:42;;;;;;;5.15;1.92;;;30.10;74.40;;;;;;4998136;28;20483;-69
2023/07/12 13:19:12;;;;;;;5.28;2.28;;;30.30;73.90;;;;;;4980767;28;20034;-68
2023/07/12 13:21:38;;;;;;;5.35;2.05;;;30.20;74.30;;;;;;4997261;28;20030;-70
2023/07/12 13:24:04;;;;;;;3.72;1.77;;;30.20;73.60;;;;;;4988177;28;20034;-69
2023/07/12 13:26:33;;;;;;;5.07;2.17;;;30.20;73.10;;;;;;4998882;28;20030;-69
2023/07/12 13:28:58;;;;;;;3.30;1.73;;;30.00;73.50;;;;;;4979719;28;20063;-67
2023/07/12 13:31:25;;;;;;;4.35;2.13;;;30.00;74.00;;;;;;4997006;28;20112;-71
2023/07/12 13:33:50;;;;;;;7.50;2.30;;;30.10;72.70;;;;;;4998000;28;20029;-70
2023/07/12 13:36:30;;;;;;;5.80;2.33;;;30.00;73.00;;;;;;4997017;28;20026;-70
2023/07/12 13:39:12;;;;;;;3.97;1.88;;;30.00;72.70;;;;;;4960026;28;20023;-70
2023/07/12 13:41:38;;;;;;;4.18;2.08;;;30.00;73.10;;;;;;4979841;28;20019;-70
2023/07/12 13:44:04;;;;;;;5.93;2.08;;;30.00;73.00;;;;;;4964036;28;20038;-66
2023/07/12 13:46:30;;;;;;;5.80;2.38;;;30.20;72.60;;;;;;4974867;28;20086;-67
2023/07/12 13:48:56;;;;;;;3.42;1.90;;;30.30;73.60;;;;;;4986218;28;20026;-67
2023/07/12 13:51:23;;;;;;;6.00;1.90;;;30.40;71.70;;;;;;4981391;28;20015;-67
2023/07/12 13:53:50;;;;;;;3.00;1.80;;;30.30;70.90;;;;;;4979403;28;20027;-66
2023/07/12 13:56:17;;;;;;;6.82;2.08;;;30.30;71.50;;;;;;4980373;28;20026;-66
2023/07/12 13:58:43;;;;;;;3.72;2.13;;;30.30;72.60;;;;;;4997830;28;20022;-69
2023/07/12 14:01:12;;;;;;;3.28;2.05;;;30.10;71.20;;;;;;4997734;28;20026;-68
2023/07/12 14:03:38;;;;;;;4.45;2.00;;;30.10;70.90;;;;;;4979413;28;20031;-67
2023/07/12 14:06:04;;;;;;;5.10;2.20;;;30.00;69.70;;;;;;4996269;28;20491;-66
2023/07/12 14:08:30;;;;;;;4.78;2.10;;;30.00;69.40;;;;;;4996462;28;20029;-65
2023/07/12 14:10:55;;;;;;;4.53;2.00;;;29.90;70.20;;;;;;4978569;28;20387;-65
2023/07/12 14:13:22;;;;;;;6.30;2.83;;;29.80;70.30;;;;;;4979131;28;20093;-66
2023/07/12 14:15:48;;;;;;;9.90;2.70;;;29.80;70.30;;;;;;4996024;28;20110;-66
2023/07/12 14:18:13;;;;;;;5.88;2.00;;;29.80;70.90;;;;;;4996013;28;20050;-66
2023/07/12 14:20:39;;;;;;;4.80;1.88;;;29.90;70.40;;;;;;4995870;28;20391;-66
2023/07/12 14:23:12;;;;;;;7.38;1.92;;;30.10;70.70;;;;;;5000612;28;20027;-66
2023/07/12 14:25:38;;;;;;;5.70;3.00;;;30.00;70.10;;;;;;4981035;28;20049;-67
2023/07/12 14:28:05;;;;;;;7.05;2.78;;;30.00;70.00;;;;;;4978585;28;20526;-66
2023/07/12 14:30:30;;;;;;;5.38;3.15;;;30.00;70.40;;;;;;4996109;28;20101;-66
2023/07/12 14:32:56;;;;;;;11.25;2.83;;;30.00;70.00;;;;;;4995016;28;20388;-66
2023/07/12 14:35:26;;;;;;;10.10;2.67;;;30.00;70.70;;;;;;4992774;28;20046;-66
2023/07/12 14:37:56;;;;;;;4.28;2.25;;;30.10;70.90;;;;;;4989778;28;20030;-66
2023/07/12 14:40:23;;;;;;;4.88;2.38;;;30.20;70.70;;;;;;4987118;28;20109;-66
2023/07/12 14:42:48;;;;;;;4.20;2.25;;;30.00;69.60;;;;;;4968120;28;20364;-66
2023/07/12 14:45:18;;;;;;;5.00;2.38;;;29.90;69.70;;;;;;4993544;28;20517;-67
2023/07/12 14:47:44;;;;;;;3.92;2.17;;;30.00;70.10;;;;;;4987186;28;20117;-66
2023/07/12 14:50:12;;;;;;;4.10;2.13;;;29.90;70.00;;;;;;4992210;28;20094;-66
2023/07/12 14:52:39;;;;;;;3.85;1.73;;;29.80;69.90;;;;;;4990737;28;20028;-66
2023/07/12 14:55:14;;;;;;;3.20;1.90;;;29.90;69.60;;;;;;4984692;28;20085;-67
2023/07/12 14:57:40;;;;;;;5.97;2.10;;;29.90;69.40;;;;;;4990826;28;20031;-67
2023/07/12 15:00:11;;;;;;;5.20;2.08;;;29.90;69.50;;;;;;4975393;28;20377;-66
2023/07/12 15:02:39;;;;;;;3.95;1.90;;;29.90;69.70;;;;;;4984650;28;20046;-66
2023/07/12 15:05:06;;;;;;;3.67;2.20;;;29.80;70.10;;;;;;4977729;28;20030;-65
2023/07/12 15:07:35;;;;;;;4.25;2.00;;;29.80;70.60;;;;;;4995565;28;20383;-66
2023/07/12 15:10:03;;;;;;;5.00;1.80;;;29.70;70.90;;;;;;4989322;28;20031;-66
2023/07/12 15:12:40;;;;;;;4.47;2.30;;;29.70;71.30;;;;;;4992188;28;20093;-66
2023/07/12 15:15:11;;;;;;;4.35;2.05;;;29.70;71.00;;;;;;4994479;28;20026;-66
2023/07/12 15:17:38;;;;;;;3.92;1.48;;;29.80;70.50;;;;;;4995432;28;20031;-66
2023/07/12 15:20:05;;;;;;;6.85;2.58;;;29.90;70.50;;;;;;4991957;28;20431;-66
2023/07/12 15:22:32;;;;;;;4.57;2.15;;;29.90;70.60;;;;;;4992193;28;20036;-66
2023/07/12 15:24:58;;;;;;;4.90;2.08;;;29.80;70.60;;;;;;4984799;28;20077;-66
2023/07/12 15:27:23;;;;;;;5.72;2.60;;;29.70;70.80;;;;;;4981238;28;20054;-66
2023/07/12 15:29:50;;;;;;;6.45;2.17;;;29.70;70.40;;;;;;4976550;28;20034;-67
2023/07/12 15:32:17;;;;;;;5.63;2.05;;;29.80;70.40;;;;;;4996105;28;20030;-67
2023/07/12 15:34:45;;;;;;;3.78;2.05;;;29.70;71.00;;;;;;4985772;28;20026;-66
2023/07/12 15:37:13;;;;;;;3.20;1.90;;;29.60;70.50;;;;;;4983177;28;20022;-67
2023/07/12 15:39:41;;;;;;;5.47;1.80;;;29.60;70.70;;;;;;4969981;28;20073;-73
2023/07/12 15:42:25;;;;;;;4.22;1.80;;;29.30;71.20;;;;;;4977667;28;20077;-71
2023/07/12 15:44:51;;;;;;;5.43;1.58;;;29.10;72.10;;;;;;4973751;28;20033;-72
2023/07/12 15:47:17;;;;;;;3.63;1.40;;;29.10;72.40;;;;;;4995678;28;20030;-72
2023/07/12 15:49:43;;;;;;;3.60;1.65;;;29.00;72.60;;;;;;4977821;28;20053;-72
2023/07/12 15:52:16;;;;;;;2.70;1.55;;;28.90;72.90;;;;;;4966557;28;20046;-71
2023/07/12 15:54:42;;;;;;;3.05;1.60;;;28.80;73.70;;;;;;4978356;28;20054;-72
2023/07/12 15:57:12;;;;;;;3.42;1.45;;;28.60;74.10;;;;;;4971114;28;20073;-71
2023/07/12 15:59:39;;;;;;;6.72;1.80;;;28.50;74.80;;;;;;4975103;28;20352;-71
2023/07/12 16:02:16;;;;;;;5.57;1.60;;;28.60;74.80;;;;;;4976774;28;20026;-71
2023/07/12 16:04:45;;;;;;;5.15;1.88;;;28.50;74.30;;;;;;4977695;28;20026;-72
2023/07/12 16:07:12;;;;;;;3.28;1.42;;;28.40;74.70;;;;;;4974693;28;20361;-71
2023/07/12 16:09:38;;;;;;;2.97;1.50;;;28.40;75.20;;;;;;4978410;28;20426;-71
2023/07/12 16:12:04;;;;;;;3.35;1.40;;;28.40;75.40;;;;;;4995194;28;20038;-71
2023/07/12 16:14:30;;;;;;;3.88;2.33;;;28.40;75.40;;;;;;4978306;28;20084;-71
2023/07/12 16:16:55;;;;;;;3.55;1.80;;;28.40;75.40;;;;;;4980354;28;20493;-73
2023/07/12 16:19:22;;;;;;;3.72;1.48;;;28.40;75.50;;;;;;4980268;28;20534;-72
2023/07/12 16:21:48;;;;;;;4.10;1.58;;;28.40;75.80;;;;;;5017408;23;20045;-71
2023/07/12 16:24:16;;;;;;;4.18;2.00;;;28.40;76.20;;;;;;4995438;28;20030;-70
2023/07/12 16:26:41;;;;;;;4.45;1.77;;;28.40;76.40;;;;;;4977202;28;20030;-71
2023/07/12 16:29:08;;;;;;;4.18;1.50;;;28.30;76.60;;;;;;4995977;28;20042;-70
2023/07/12 16:31:44;;;;;;;2.17;1.42;;;28.40;77.00;;;;;;4977149;28;20030;-72
2023/07/12 16:34:22;;;;;;;2.75;1.40;;;28.40;76.50;;;;;;4971633;28;20046;-70
2023/07/12 16:36:50;;;;;;;3.22;1.40;;;28.40;76.80;;;;;;4954650;28;20038;-71
2023/07/12 16:39:16;;;;;;;3.97;1.60;;;28.40;77.00;;;;;;4956261;29;20429;-71
2023/07/12 16:41:43;;;;;;;2.97;1.45;;;28.30;77.50;;;;;;4955494;28;20042;-70
2023/07/12 16:44:20;;;;;;;2.45;1.65;;;28.20;76.70;;;;;;4938244;29;20035;-71
2023/07/12 16:46:46;;;;;;;3.95;1.60;;;28.10;77.00;;;;;;4960932;28;20426;-70
2023/07/12 16:49:12;;;;;;;2.92;1.80;;;28.10;78.00;;;;;;4963266;28;20026;-71
2023/07/12 16:51:54;;;;;;;2.58;1.50;;;28.00;77.20;;;;;;4958250;28;20440;-71
2023/07/12 16:54:20;;;;;;;3.58;1.80;;;27.90;76.50;;;;;;4974362;28;20025;-71
2023/07/12 16:56:47;;;;;;;2.42;1.35;;;27.80;77.60;;;;;;4974860;28;20483;-71
2023/07/12 16:59:13;;;;;;;3.75;1.80;;;27.80;76.70;;;;;;4957667;28;20038;-72
2023/07/12 17:01:38;;;;;;;3.28;1.30;;;27.80;76.70;;;;;;4973829;28;20031;-71
2023/07/12 17:04:05;;;;;;;4.13;1.30;;;27.80;77.20;;;;;;4975335;28;20049;-70
2023/07/12 17:06:31;;;;;;;1.80;1.25;;;27.70;76.10;;;;;;4974684;28;20369;-70